Wake Island Airfield, Wake Island

9:27 AM WAKT on December 18, 2014 (GMT +1200)
Wake Island Army Air Field | Change Station
CLOSE
Current Station
Airport
Location: Wake Island, Wake Island Army,
Elevation: 13 ft
Nearby Weather Stations

Elev 13 ft 19.28 °N, 166.64 °E | Updated 29 minutes ago

Partly Cloudy
Partly Cloudy
79 °F
Feels Like 79 °F
N
13
Wind Variable Wind from ENE

Today
High -- | Low -- °F
--% Chance of Precip.
Yesterday
High -- | Low -- °F
Precip. -- in
7:20 AM 6:18 PM
Waning Crescent, 19% visible
Pressure 30.04 in
Visibility 6.2 miles
Clouds Few 1900 ft
Dew Point 76 °F
Humidity 90%
Rainfall 0.02 in
Snow Depth Not available.
UV 1 out of 12
Pollen Not available.
Air Quality Not available.
Flu Activity Not available.
METAR PWAK 172058Z AUTO 07011KT 9999 FEW019 26/24 A3002 RMK AO2 RAB2027E2042 SLP172 P0001 60002 T02620244 52024

More Conditions Fewer Conditions

Pressure 30.04 in
Visibility 6.2 miles
Clouds Few 1900 ft
Dew Point 76 °F
Humidity 90%
Rainfall 0.02 in
Snow Depth Not available.
UV 1 out of 12
Pollen Not available.
Air Quality Not available.
Flu Activity Not available.
METAR PWAK 172058Z AUTO 07011KT 9999 FEW019 26/24 A3002 RMK AO2 RAB2027E2042 SLP172 P0001 60002 T02620244 52024

More Conditions Fewer Conditions

10-Day Weather Forecast

Almanac

Astronomy

Dec. 18, 2014 Rise Set
Actual Time
Civil Twilight
Nautical Twilight
Astronomical Twilight
Moon
Length of Visible Light
Length of Day
Tomorrow will be .
, % of the Moon is Illuminated

Today's Extremes

Country Highs Country Lows

Community

WunderPhotos

Upload Photos

1,778,806 photos uploaded!

WunderBlogs® & News

Nearby

Air Quality

  Air Quality AQ Index Pollutant
Not available.

Snow Depth

Station Depth Elevation

Earthquake Activity

City Distance Mag. Time & Date
Minimum magnitude displayed is 2.5.

Coastal Water Temperatures

Place Temperature

Nearby Weather Stations